sensor_id;sensor_type;location;lat;lon;timestamp;pressure;altitude;pressure_sealevel;temperature;humidity
9110;BME280;4590;51.462;6.692;2023-01-13T00:00:54;100237.09;;;11.41;77.59
9110;BME280;4590;51.462;6.692;2023-01-13T00:03:19;100200.47;;;11.41;77.27
9110;BME280;4590;51.462;6.692;2023-01-13T00:05:44;100200.97;;;11.43;76.96
9110;BME280;4590;51.462;6.692;2023-01-13T00:08:10;100220.25;;;11.43;77.47
9110;BME280;4590;51.462;6.692;2023-01-13T00:10:36;100223.66;;;11.40;77.14
9110;BME280;4590;51.462;6.692;2023-01-13T00:13:03;100216.84;;;11.37;77.19
9110;BME280;4590;51.462;6.692;2023-01-13T00:15:29;100211.97;;;11.34;77.36
9110;BME280;4590;51.462;6.692;2023-01-13T00:17:54;100226.72;;;11.38;77.06
9110;BME280;4590;51.462;6.692;2023-01-13T00:20:20;100229.47;;;11.38;76.76
9110;BME280;4590;51.462;6.692;2023-01-13T00:22:45;100222.34;;;11.37;77.10
9110;BME280;4590;51.462;6.692;2023-01-13T00:25:11;100214.91;;;11.38;77.16
9110;BME280;4590;51.462;6.692;2023-01-13T00:27:37;100222.34;;;11.37;77.27
9110;BME280;4590;51.462;6.692;2023-01-13T00:30:03;100221.22;;;11.38;76.83
9110;BME280;4590;51.462;6.692;2023-01-13T00:32:28;100232.06;;;11.35;77.02
9110;BME280;4590;51.462;6.692;2023-01-13T00:34:53;100232.88;;;11.35;77.33
9110;BME280;4590;51.462;6.692;2023-01-13T00:37:19;100226.72;;;11.38;76.66
9110;BME280;4590;51.462;6.692;2023-01-13T00:39:44;100234.19;;;11.38;76.56
9110;BME280;4590;51.462;6.692;2023-01-13T00:42:10;100224.28;;;11.37;76.61
9110;BME280;4590;51.462;6.692;2023-01-13T00:44:53;100227.84;;;11.37;76.12
9110;BME280;4590;51.462;6.692;2023-01-13T00:47:19;100229.00;;;11.36;76.03
9110;BME280;4590;51.462;6.692;2023-01-13T00:49:44;100233.69;;;11.36;76.38
9110;BME280;4590;51.462;6.692;2023-01-13T00:52:10;100227.38;;;11.35;76.36
9110;BME280;4590;51.462;6.692;2023-01-13T00:54:36;100227.38;;;11.35;76.16
9110;BME280;4590;51.462;6.692;2023-01-13T00:57:01;100226.25;;;11.36;75.96
9110;BME280;4590;51.462;6.692;2023-01-13T00:59:26;100224.16;;;11.33;75.72
9110;BME280;4590;51.462;6.692;2023-01-13T01:01:51;100225.75;;;11.34;75.48
9110;BME280;4590;51.462;6.692;2023-01-13T01:04:17;100222.03;;;11.30;75.74
9110;BME280;4590;51.462;6.692;2023-01-13T01:06:42;100213.94;;;11.25;75.67
9110;BME280;4590;51.462;6.692;2023-01-13T01:09:12;100227.69;;;11.25;75.42
9110;BME280;4590;51.462;6.692;2023-01-13T01:11:37;100224.94;;;11.25;75.31
9110;BME280;4590;51.462;6.692;2023-01-13T01:14:03;100202.91;;;11.25;75.25
9110;BME280;4590;51.462;6.692;2023-01-13T01:16:29;100203.22;;;11.23;75.14
9110;BME280;4590;51.462;6.692;2023-01-13T01:18:55;100214.25;;;11.23;74.73
9110;BME280;4590;51.462;6.692;2023-01-13T01:21:23;100208.06;;;11.18;74.49
9110;BME280;4590;51.462;6.692;2023-01-13T01:23:49;100224.59;;;11.18;74.00
9110;BME280;4590;51.462;6.692;2023-01-13T01:26:17;100229.47;;;11.12;74.12
9110;BME280;4590;51.462;6.692;2023-01-13T01:28:44;100237.72;;;11.12;74.23
9110;BME280;4590;51.462;6.692;2023-01-13T01:31:13;100248.25;;;11.10;74.29
9110;BME280;4590;51.462;6.692;2023-01-13T01:33:38;100240.63;;;11.07;73.91
9110;BME280;4590;51.462;6.692;2023-01-13T01:36:05;100248.09;;;11.07;73.85
9110;BME280;4590;51.462;6.692;2023-01-13T01:38:30;100247.59;;;11.05;73.54
9110;BME280;4590;51.462;6.692;2023-01-13T01:40:56;100235.13;;;10.99;73.59
9110;BME280;4590;51.462;6.692;2023-01-13T01:43:22;100234.63;;;10.97;73.43
9110;BME280;4590;51.462;6.692;2023-01-13T01:46:06;100234.63;;;10.97;73.58
9110;BME280;4590;51.462;6.692;2023-01-13T01:48:38;100234.16;;;10.95;72.63
9110;BME280;4590;51.462;6.692;2023-01-13T01:51:07;100247.91;;;10.95;73.26
9110;BME280;4590;51.462;6.692;2023-01-13T01:53:34;100255.34;;;10.94;73.18
9110;BME280;4590;51.462;6.692;2023-01-13T01:56:00;100252.91;;;10.93;72.71
9110;BME280;4590;51.462;6.692;2023-01-13T01:58:34;100248.84;;;10.90;72.86
9110;BME280;4590;51.462;6.692;2023-01-13T02:01:01;100236.22;;;10.89;72.87
9110;BME280;4590;51.462;6.692;2023-01-13T02:03:28;100240.91;;;10.88;72.83
9110;BME280;4590;51.462;6.692;2023-01-13T02:05:53;100242.03;;;10.87;72.68
9110;BME280;4590;51.462;6.692;2023-01-13T02:08:19;100235.59;;;10.83;73.04
9110;BME280;4590;51.462;6.692;2023-01-13T02:10:49;100245.28;;;10.81;72.35
9110;BME280;4590;51.462;6.692;2023-01-13T02:13:18;100248.03;;;10.81;72.50
9110;BME280;4590;51.462;6.692;2023-01-13T02:15:57;100247.38;;;10.75;72.18
9110;BME280;4590;51.462;6.692;2023-01-13T02:18:48;100241.69;;;10.72;72.44
9110;BME280;4590;51.462;6.692;2023-01-13T02:25:23;100259.31;;;10.62;71.79
9110;BME280;4590;51.462;6.692;2023-01-13T02:28:20;100247.63;;;10.57;71.62
9110;BME280;4590;51.462;6.692;2023-01-13T02:30:59;100241.66;;;10.54;71.62
9110;BME280;4590;51.462;6.692;2023-01-13T02:36:28;100261.47;;;10.43;70.68
9110;BME280;4590;51.462;6.692;2023-01-13T02:39:00;100262.66;;;10.50;72.14
9110;BME280;4590;51.462;6.692;2023-01-13T02:41:33;100268.16;;;10.50;72.01
9110;BME280;4590;51.462;6.692;2023-01-13T02:44:23;100253.28;;;10.51;71.59
9110;BME280;4590;51.462;6.692;2023-01-13T02:46:57;100245.03;;;10.51;71.58
9110;BME280;4590;51.462;6.692;2023-01-13T02:49:32;100237.41;;;10.48;71.17
9110;BME280;4590;51.462;6.692;2023-01-13T02:52:15;100240.59;;;10.42;70.77
9110;BME280;4590;51.462;6.692;2023-01-13T02:54:44;100234.97;;;10.47;70.81
9110;BME280;4590;51.462;6.692;2023-01-13T02:57:12;100230.59;;;10.46;70.80
9110;BME280;4590;51.462;6.692;2023-01-13T02:59:41;100233.16;;;10.42;70.66
9110;BME280;4590;51.462;6.692;2023-01-13T03:02:11;100249.53;;;10.39;70.37
9110;BME280;4590;51.462;6.692;2023-01-13T03:04:46;100230.91;;;10.36;70.18
9110;BME280;4590;51.462;6.692;2023-01-13T03:13:01;100223.56;;;10.23;69.68
9110;BME280;4590;51.462;6.692;2023-01-13T03:15:53;100225.31;;;10.18;69.54
9110;BME280;4590;51.462;6.692;2023-01-13T03:18:38;100227.53;;;10.16;69.45
9110;BME280;4590;51.462;6.692;2023-01-13T03:21:14;100231.41;;;10.15;69.73
9110;BME280;4590;51.462;6.692;2023-01-13T03:24:17;100227.31;;;10.04;68.95
9110;BME280;4590;51.462;6.692;2023-01-13T03:26:51;100217.78;;;10.10;69.57
9110;BME280;4590;51.462;6.692;2023-01-13T03:29:27;100218.09;;;10.09;69.49
9110;BME280;4590;51.462;6.692;2023-01-13T03:32:22;100217.56;;;9.98;68.41
9110;BME280;4590;51.462;6.692;2023-01-13T03:34:51;100223.59;;;10.09;69.57
9110;BME280;4590;51.462;6.692;2023-01-13T03:37:22;100222.78;;;10.08;69.40
9110;BME280;4590;51.462;6.692;2023-01-13T03:39:57;100228.13;;;10.05;69.19
9110;BME280;4590;51.462;6.692;2023-01-13T03:42:25;100214.69;;;10.03;69.38
9110;BME280;4590;51.462;6.692;2023-01-13T03:45:09;100214.31;;;9.96;68.19
9110;BME280;4590;51.462;6.692;2023-01-13T03:47:43;100211.44;;;10.01;68.69
9110;BME280;4590;51.462;6.692;2023-01-13T03:50:15;100208.19;;;9.99;69.14
9110;BME280;4590;51.462;6.692;2023-01-13T03:52:45;100187.03;;;10.00;68.44
9110;BME280;4590;51.462;6.692;2023-01-13T03:55:14;100199.97;;;9.99;68.91
9110;BME280;4590;51.462;6.692;2023-01-13T03:57:54;100194.59;;;9.94;67.85
9110;BME280;4590;51.462;6.692;2023-01-13T04:00:26;100197.03;;;9.96;68.16
9110;BME280;4590;51.462;6.692;2023-01-13T04:03:09;100194.09;;;9.92;67.87
9110;BME280;4590;51.462;6.692;2023-01-13T04:05:39;100206.38;;;9.95;68.29
9110;BME280;4590;51.462;6.692;2023-01-13T04:10:39;100205.41;;;9.91;67.69
9110;BME280;4590;51.462;6.692;2023-01-13T04:13:14;100204.25;;;9.92;67.59
9110;BME280;4590;51.462;6.692;2023-01-13T04:15:42;100218.16;;;9.87;67.54
9110;BME280;4590;51.462;6.692;2023-01-13T04:18:09;100225.78;;;9.90;68.30
9110;BME280;4590;51.462;6.692;2023-01-13T04:20:36;100221.72;;;9.87;68.20
9110;BME280;4590;51.462;6.692;2023-01-13T04:23:02;100215.34;;;9.78;67.79
9110;BME280;4590;51.462;6.692;2023-01-13T04:25:28;100207.28;;;9.81;67.72
9110;BME280;4590;51.462;6.692;2023-01-13T04:27:53;100221.72;;;9.87;67.98
9110;BME280;4590;51.462;6.692;2023-01-13T04:30:18;100208.59;;;9.84;67.88
9110;BME280;4590;51.462;6.692;2023-01-13T04:32:43;100214.72;;;9.81;68.28
9110;BME280;4590;51.462;6.692;2023-01-13T04:35:09;100224.47;;;9.87;67.93
9110;BME280;4590;51.462;6.692;2023-01-13T04:37:34;100235.97;;;9.89;68.04
9110;BME280;4590;51.462;6.692;2023-01-13T04:40:00;100232.72;;;9.87;67.78
9110;BME280;4590;51.462;6.692;2023-01-13T04:42:25;100225.13;;;9.93;67.96
9110;BME280;4590;51.462;6.692;2023-01-13T04:44:50;100231.75;;;9.92;67.82
9110;BME280;4590;51.462;6.692;2023-01-13T04:47:15;100235.81;;;9.94;67.90
9110;BME280;4590;51.462;6.692;2023-01-13T04:49:41;100241.31;;;9.94;67.82
9110;BME280;4590;51.462;6.692;2023-01-13T04:52:06;100250.97;;;9.92;68.48
9110;BME280;4590;51.462;6.692;2023-01-13T04:54:31;100236.00;;;9.98;68.18
9110;BME280;4590;51.462;6.692;2023-01-13T04:56:57;100242.00;;;10.00;68.04
9110;BME280;4590;51.462;6.692;2023-01-13T04:59:22;100231.94;;;9.95;68.26
9110;BME280;4590;51.462;6.692;2023-01-13T05:01:47;100220.00;;;10.00;68.37
9110;BME280;4590;51.462;6.692;2023-01-13T05:04:12;100212.25;;;10.02;68.40
9110;BME280;4590;51.462;6.692;2023-01-13T05:06:39;100215.50;;;10.04;68.30
9110;BME280;4590;51.462;6.692;2023-01-13T05:09:05;100210.81;;;10.04;68.28
9110;BME280;4590;51.462;6.692;2023-01-13T05:11:30;100216.00;;;10.06;68.38
9110;BME280;4590;51.462;6.692;2023-01-13T05:14:14;100215.00;;;10.02;68.44
9110;BME280;4590;51.462;6.692;2023-01-13T05:16:58;100226.00;;;10.02;68.11
9110;BME280;4590;51.462;6.692;2023-01-13T05:19:25;100221.63;;;10.01;68.08
9110;BME280;4590;51.462;6.692;2023-01-13T05:21:51;100223.84;;;9.90;68.24
9110;BME280;4590;51.462;6.692;2023-01-13T05:24:35;100218.19;;;9.95;68.27
9110;BME280;4590;51.462;6.692;2023-01-13T05:27:19;100222.25;;;9.98;67.95
9110;BME280;4590;51.462;6.692;2023-01-13T05:29:44;100232.94;;;9.99;68.04
9110;BME280;4590;51.462;6.692;2023-01-13T05:32:09;100237.81;;;10.02;68.02
9110;BME280;4590;51.462;6.692;2023-01-13T05:34:34;100248.81;;;10.02;67.86
9110;BME280;4590;51.462;6.692;2023-01-13T05:37:00;100242.81;;;10.00;67.80
9110;BME280;4590;51.462;6.692;2023-01-13T05:39:28;100242.50;;;10.02;67.88
9110;BME280;4590;51.462;6.692;2023-01-13T05:42:13;100247.69;;;10.03;67.58
9110;BME280;4590;51.462;6.692;2023-01-13T05:44:57;100247.19;;;10.01;67.50
9110;BME280;4590;51.462;6.692;2023-01-13T05:47:22;100253.50;;;10.02;67.71
9110;BME280;4590;51.462;6.692;2023-01-13T05:49:48;100237.50;;;10.04;67.83
9110;BME280;4590;51.462;6.692;2023-01-13T05:52:13;100258.69;;;10.03;67.81
9110;BME280;4590;51.462;6.692;2023-01-13T05:54:38;100243.00;;;10.04;67.71
9110;BME280;4590;51.462;6.692;2023-01-13T05:57:05;100246.88;;;10.03;67.54
9110;BME280;4590;51.462;6.692;2023-01-13T05:59:30;100244.06;;;9.94;67.68
9110;BME280;4590;51.462;6.692;2023-01-13T06:01:55;100246.38;;;10.01;67.75
9110;BME280;4590;51.462;6.692;2023-01-13T06:04:21;100242.50;;;10.02;67.67
9110;BME280;4590;51.462;6.692;2023-01-13T06:06:46;100257.16;;;9.97;67.60
9110;BME280;4590;51.462;6.692;2023-01-13T06:09:13;100246.50;;;9.96;67.35
9110;BME280;4590;51.462;6.692;2023-01-13T06:11:38;100248.44;;;9.95;67.21
9110;BME280;4590;51.462;6.692;2023-01-13T06:14:03;100252.13;;;9.91;67.33
9110;BME280;4590;51.462;6.692;2023-01-13T06:16:28;100246.63;;;9.91;67.37
9110;BME280;4590;51.462;6.692;2023-01-13T06:18:54;100250.63;;;9.84;67.41
9110;BME280;4590;51.462;6.692;2023-01-13T06:21:19;100255.00;;;9.85;67.28
9110;BME280;4590;51.462;6.692;2023-01-13T06:23:44;100255.31;;;9.84;67.63
9110;BME280;4590;51.462;6.692;2023-01-13T06:26:18;100269.06;;;9.84;67.29
9110;BME280;4590;51.462;6.692;2023-01-13T06:28:44;100261.75;;;9.79;67.17
9110;BME280;4590;51.462;6.692;2023-01-13T06:31:09;100248.63;;;9.76;67.31
9110;BME280;4590;51.462;6.692;2023-01-13T06:33:41;100266.25;;;9.75;67.34
9110;BME280;4590;51.462;6.692;2023-01-13T06:36:18;100256.94;;;9.63;67.11
9110;BME280;4590;51.462;6.692;2023-01-13T06:38:48;100267.09;;;9.62;67.12
9110;BME280;4590;51.462;6.692;2023-01-13T06:41:16;100264.56;;;9.66;67.31
9110;BME280;4590;51.462;6.692;2023-01-13T06:44:02;100269.34;;;9.60;66.94
9110;BME280;4590;51.462;6.692;2023-01-13T06:46:27;100273.72;;;9.61;66.99
9110;BME280;4590;51.462;6.692;2023-01-13T06:48:53;100279.22;;;9.61;67.11
9110;BME280;4590;51.462;6.692;2023-01-13T06:51:18;100269.78;;;9.54;66.74
9110;BME280;4590;51.462;6.692;2023-01-13T06:53:43;100279.66;;;9.55;66.71
9110;BME280;4590;51.462;6.692;2023-01-13T06:56:08;100273.66;;;9.53;66.74
9110;BME280;4590;51.462;6.692;2023-01-13T06:58:34;100272.03;;;9.52;66.55
9110;BME280;4590;51.462;6.692;2023-01-13T07:00:59;100283.31;;;9.50;66.69
9110;BME280;4590;51.462;6.692;2023-01-13T07:03:25;100290.56;;;9.46;66.23
9110;BME280;4590;51.462;6.692;2023-01-13T07:05:52;100279.88;;;9.44;66.50
9110;BME280;4590;51.462;6.692;2023-01-13T07:08:18;100287.81;;;9.46;66.71
9110;BME280;4590;51.462;6.692;2023-01-13T07:10:43;100279.41;;;9.42;66.46
9110;BME280;4590;51.462;6.692;2023-01-13T07:13:08;100282.16;;;9.42;66.30
9110;BME280;4590;51.462;6.692;2023-01-13T07:15:57;100282.44;;;9.41;66.23
9110;BME280;4590;51.462;6.692;2023-01-13T07:18:22;100276.66;;;9.42;66.29
9110;BME280;4590;51.462;6.692;2023-01-13T07:20:53;100288.25;;;9.39;66.12
9110;BME280;4590;51.462;6.692;2023-01-13T07:23:18;100277.13;;;9.44;66.17
9110;BME280;4590;51.462;6.692;2023-01-13T07:25:44;100281.50;;;9.45;66.59
9110;BME280;4590;51.462;6.692;2023-01-13T07:28:09;100268.59;;;9.46;66.76
9110;BME280;4590;51.462;6.692;2023-01-13T07:30:34;100283.94;;;9.47;66.47
9110;BME280;4590;51.462;6.692;2023-01-13T07:33:00;100277.63;;;9.46;66.25
9110;BME280;4590;51.462;6.692;2023-01-13T07:35:25;100289.44;;;9.47;66.23
9110;BME280;4590;51.462;6.692;2023-01-13T07:37:50;100280.06;;;9.48;66.33
9110;BME280;4590;51.462;6.692;2023-01-13T07:40:15;100275.69;;;9.47;66.07
9110;BME280;4590;51.462;6.692;2023-01-13T07:42:41;100283.13;;;9.46;66.07
9110;BME280;4590;51.462;6.692;2023-01-13T07:45:25;100284.91;;;9.42;66.24
9110;BME280;4590;51.462;6.692;2023-01-13T07:47:51;100288.63;;;9.46;65.71
9110;BME280;4590;51.462;6.692;2023-01-13T07:50:16;100300.66;;;9.37;64.82
9110;BME280;4590;51.462;6.692;2023-01-13T07:52:42;100296.84;;;9.46;66.27
9110;BME280;4590;51.462;6.692;2023-01-13T07:55:07;100300.63;;;9.50;66.00
9110;BME280;4590;51.462;6.692;2023-01-13T07:57:33;100294.63;;;9.48;66.40
9110;BME280;4590;51.462;6.692;2023-01-13T07:59:58;100302.75;;;9.54;65.66
9110;BME280;4590;51.462;6.692;2023-01-13T08:02:23;100303.56;;;9.54;65.74
9110;BME280;4590;51.462;6.692;2023-01-13T08:04:48;100293.91;;;9.57;65.74
9110;BME280;4590;51.462;6.692;2023-01-13T08:07:14;100309.75;;;9.60;65.33
9110;BME280;4590;51.462;6.692;2023-01-13T08:09:39;100300.88;;;9.63;65.67
9110;BME280;4590;51.462;6.692;2023-01-13T08:12:04;100320.63;;;9.65;65.43
9110;BME280;4590;51.462;6.692;2023-01-13T08:14:56;100318.56;;;9.70;65.34
9110;BME280;4590;51.462;6.692;2023-01-13T08:17:21;100313.69;;;9.67;65.16
9110;BME280;4590;51.462;6.692;2023-01-13T08:19:46;100316.63;;;9.71;65.22
9110;BME280;4590;51.462;6.692;2023-01-13T08:22:12;100317.44;;;9.71;65.29
9110;BME280;4590;51.462;6.692;2023-01-13T08:24:37;100322.44;;;9.69;64.98
9110;BME280;4590;51.462;6.692;2023-01-13T08:27:02;100321.63;;;9.69;64.80
9110;BME280;4590;51.462;6.692;2023-01-13T08:29:27;100337.50;;;9.72;64.75
9110;BME280;4590;51.462;6.692;2023-01-13T08:31:53;100338.47;;;9.76;64.87
9110;BME280;4590;51.462;6.692;2023-01-13T08:34:18;100326.06;;;9.78;64.52
9110;BME280;4590;51.462;6.692;2023-01-13T08:36:43;100331.75;;;9.82;64.87
9110;BME280;4590;51.462;6.692;2023-01-13T08:39:09;100321.69;;;9.77;64.74
9110;BME280;4590;51.462;6.692;2023-01-13T08:41:34;100321.56;;;9.82;64.79
9110;BME280;4590;51.462;6.692;2023-01-13T08:44:18;100335.31;;;9.82;64.56
9110;BME280;4590;51.462;6.692;2023-01-13T08:46:43;100333.56;;;9.87;64.85
9110;BME280;4590;51.462;6.692;2023-01-13T08:49:08;100333.56;;;9.87;64.57
9110;BME280;4590;51.462;6.692;2023-01-13T08:51:33;100336.31;;;9.87;64.42
9110;BME280;4590;51.462;6.692;2023-01-13T08:53:59;100331.03;;;9.90;64.64
9110;BME280;4590;51.462;6.692;2023-01-13T08:56:24;100340.38;;;9.89;64.68
9110;BME280;4590;51.462;6.692;2023-01-13T08:58:50;100358.00;;;9.88;64.62
9110;BME280;4590;51.462;6.692;2023-01-13T09:01:20;100348.31;;;9.91;64.63
9110;BME280;4590;51.462;6.692;2023-01-13T09:03:45;100357.03;;;9.93;64.41
9110;BME280;4590;51.462;6.692;2023-01-13T09:06:11;100355.41;;;9.92;64.47
9110;BME280;4590;51.462;6.692;2023-01-13T09:08:36;100357.03;;;9.93;64.78
9110;BME280;4590;51.462;6.692;2023-01-13T09:11:01;100358.34;;;9.95;64.58
9110;BME280;4590;51.462;6.692;2023-01-13T09:13:47;100355.19;;;10.02;64.55
9110;BME280;4590;51.462;6.692;2023-01-13T09:16:12;100364.44;;;10.06;64.93
9110;BME280;4590;51.462;6.692;2023-01-13T09:18:37;100357.38;;;10.13;65.00
9110;BME280;4590;51.462;6.692;2023-01-13T09:21:03;100349.03;;;10.18;65.24
9110;BME280;4590;51.462;6.692;2023-01-13T09:23:28;100355.53;;;10.23;64.63
9110;BME280;4590;51.462;6.692;2023-01-13T09:25:53;100365.25;;;10.29;64.43
9110;BME280;4590;51.462;6.692;2023-01-13T09:28:19;100357.53;;;10.31;64.72
9110;BME280;4590;51.462;6.692;2023-01-13T09:30:44;100348.69;;;10.42;64.13
9110;BME280;4590;51.462;6.692;2023-01-13T09:33:09;100338.25;;;10.53;64.28
9110;BME280;4590;51.462;6.692;2023-01-13T09:36:07;100330.84;;;10.62;64.15
9110;BME280;4590;51.462;6.692;2023-01-13T09:38:32;100333.28;;;10.64;63.70
9110;BME280;4590;51.462;6.692;2023-01-13T09:40:57;100334.44;;;10.71;63.45
9110;BME280;4590;51.462;6.692;2023-01-13T09:43:28;100346.94;;;10.77;62.96
9110;BME280;4590;51.462;6.692;2023-01-13T09:46:21;100349.72;;;10.86;62.31
9110;BME280;4590;51.462;6.692;2023-01-13T09:49:13;100350.25;;;10.97;62.65
9110;BME280;4590;51.462;6.692;2023-01-13T09:51:46;100360.47;;;11.05;63.08
9110;BME280;4590;51.462;6.692;2023-01-13T09:56:45;100359.22;;;11.19;63.09
9110;BME280;4590;51.462;6.692;2023-01-13T09:59:11;100363.13;;;11.27;62.47
9110;BME280;4590;51.462;6.692;2023-01-13T10:01:57;100369.59;;;11.22;60.60
9110;BME280;4590;51.462;6.692;2023-01-13T10:04:24;100370.59;;;11.35;62.16
9110;BME280;4590;51.462;6.692;2023-01-13T10:06:57;100359.91;;;11.34;61.23
9110;BME280;4590;51.462;6.692;2023-01-13T10:09:47;100374.03;;;11.41;60.82
9110;BME280;4590;51.462;6.692;2023-01-13T10:12:19;100363.34;;;11.48;60.65
9110;BME280;4590;51.462;6.692;2023-01-13T10:15:12;100366.94;;;11.57;61.13
9110;BME280;4590;51.462;6.692;2023-01-13T10:17:43;100368.41;;;11.63;60.48
9110;BME280;4590;51.462;6.692;2023-01-13T10:25:32;100367.75;;;11.75;60.03
9110;BME280;4590;51.462;6.692;2023-01-13T10:28:14;100385.13;;;11.75;58.49
9110;BME280;4590;51.462;6.692;2023-01-13T10:30:43;100388.38;;;11.86;60.24
9110;BME280;4590;51.462;6.692;2023-01-13T10:33:13;100384.81;;;11.85;59.36
9110;BME280;4590;51.462;6.692;2023-01-13T10:40:57;100385.13;;;11.84;58.15
9110;BME280;4590;51.462;6.692;2023-01-13T10:43:23;100386.13;;;11.88;59.24
9110;BME280;4590;51.462;6.692;2023-01-13T10:46:08;100400.72;;;11.88;58.19
9110;BME280;4590;51.462;6.692;2023-01-13T10:48:42;100396.81;;;11.81;58.52
9110;BME280;4590;51.462;6.692;2023-01-13T10:51:22;100402.66;;;11.88;58.56
9110;BME280;4590;51.462;6.692;2023-01-13T10:56:21;100408.31;;;11.83;58.69
9110;BME280;4590;51.462;6.692;2023-01-13T10:58:47;100417.38;;;11.75;58.56
9110;BME280;4590;51.462;6.692;2023-01-13T11:01:21;100418.34;;;11.70;58.00
9110;BME280;4590;51.462;6.692;2023-01-13T11:03:50;100426.28;;;11.63;58.77
9110;BME280;4590;51.462;6.692;2023-01-13T11:06:24;100423.00;;;11.52;58.07
9110;BME280;4590;51.462;6.692;2023-01-13T11:08:51;100426.72;;;11.56;58.63
9110;BME280;4590;51.462;6.692;2023-01-13T11:11:43;100423.44;;;11.37;57.93
9110;BME280;4590;51.462;6.692;2023-01-13T11:17:28;100431.19;;;11.35;58.77
9110;BME280;4590;51.462;6.692;2023-01-13T11:20:11;100430.88;;;11.37;59.08
9110;BME280;4590;51.462;6.692;2023-01-13T11:22:45;100438.50;;;11.31;59.56
9110;BME280;4590;51.462;6.692;2023-01-13T11:25:32;100433.75;;;11.23;59.60
9110;BME280;4590;51.462;6.692;2023-01-13T11:30:55;100437.69;;;11.31;60.36
9110;BME280;4590;51.462;6.692;2023-01-13T11:33:36;100431.88;;;11.32;59.78
9110;BME280;4590;51.462;6.692;2023-01-13T11:36:07;100435.31;;;11.46;60.67
9110;BME280;4590;51.462;6.692;2023-01-13T11:38:48;100435.13;;;11.51;60.43
9110;BME280;4590;51.462;6.692;2023-01-13T11:41:39;100438.41;;;11.53;60.31
9110;BME280;4590;51.462;6.692;2023-01-13T11:44:21;100452.34;;;11.48;60.57
9110;BME280;4590;51.462;6.692;2023-01-13T11:46:49;100432.88;;;11.45;61.43
9110;BME280;4590;51.462;6.692;2023-01-13T11:49:25;100445.53;;;11.54;61.03
9110;BME280;4590;51.462;6.692;2023-01-13T12:00:15;100466.34;;;11.30;61.98
9110;BME280;4590;51.462;6.692;2023-01-13T12:10:30;100482.84;;;10.68;64.44
9110;BME280;4590;51.462;6.692;2023-01-13T12:18:50;100473.28;;;10.65;64.96
9110;BME280;4590;51.462;6.692;2023-01-13T12:21:27;100484.91;;;10.62;65.36
9110;BME280;4590;51.462;6.692;2023-01-13T12:24:16;100476.59;;;10.53;64.99
9110;BME280;4590;51.462;6.692;2023-01-13T12:26:59;100481.47;;;10.57;64.83
9110;BME280;4590;51.462;6.692;2023-01-13T12:29:33;100485.53;;;10.59;65.13
9110;BME280;4590;51.462;6.692;2023-01-13T12:32:01;100490.22;;;10.59;65.08
9110;BME280;4590;51.462;6.692;2023-01-13T12:42:35;100479.41;;;10.62;64.78
9110;BME280;4590;51.462;6.692;2023-01-13T12:45:25;100484.28;;;10.65;64.88
9110;BME280;4590;51.462;6.692;2023-01-13T12:47:51;100492.75;;;10.69;64.89
9110;BME280;4590;51.462;6.692;2023-01-13T12:55:26;100487.78;;;10.57;64.67
9110;BME280;4590;51.462;6.692;2023-01-13T13:00:39;100488.16;;;10.42;64.43
9110;BME280;4590;51.462;6.692;2023-01-13T13:03:29;100496.91;;;10.44;64.50
9110;BME280;4590;51.462;6.692;2023-01-13T13:06:18;100494.16;;;10.44;64.28
9110;BME280;4590;51.462;6.692;2023-01-13T13:19:55;100519.41;;;10.46;64.55
9110;BME280;4590;51.462;6.692;2023-01-13T13:22:36;100526.47;;;10.38;64.47
9110;BME280;4590;51.462;6.692;2023-01-13T13:30:37;100535.59;;;10.47;64.35
9110;BME280;4590;51.462;6.692;2023-01-13T13:41:13;100561.38;;;10.51;64.12
9110;BME280;4590;51.462;6.692;2023-01-13T13:44:02;100566.28;;;10.54;64.43
9110;BME280;4590;51.462;6.692;2023-01-13T13:46:58;100563.94;;;10.48;64.01
9110;BME280;4590;51.462;6.692;2023-01-13T13:49:40;100566.38;;;10.49;64.28
9110;BME280;4590;51.462;6.692;2023-01-13T13:52:28;100581.06;;;10.45;63.79
9110;BME280;4590;51.462;6.692;2023-01-13T13:55:23;100580.13;;;10.49;64.02
9110;BME280;4590;51.462;6.692;2023-01-13T13:57:49;100612.31;;;10.49;64.33
9110;BME280;4590;51.462;6.692;2023-01-13T14:02:56;100600.75;;;10.38;65.02
9110;BME280;4590;51.462;6.692;2023-01-13T14:05:31;100605.09;;;10.39;65.55
9110;BME280;4590;51.462;6.692;2023-01-13T14:08:15;100613.34;;;10.39;65.38
9110;BME280;4590;51.462;6.692;2023-01-13T14:10:42;100615.63;;;10.37;65.51
9110;BME280;4590;51.462;6.692;2023-01-13T14:13:22;100615.59;;;10.24;66.05
9110;BME280;4590;51.462;6.692;2023-01-13T14:15:58;100631.91;;;10.34;65.87
9110;BME280;4590;51.462;6.692;2023-01-13T14:18:26;100630.28;;;10.33;66.36
9110;BME280;4590;51.462;6.692;2023-01-13T14:21:18;100634.97;;;10.32;66.02
9110;BME280;4590;51.462;6.692;2023-01-13T14:23:51;100631.72;;;10.30;66.27
9110;BME280;4590;51.462;6.692;2023-01-13T14:26:23;100635.56;;;10.29;66.67
9110;BME280;4590;51.462;6.692;2023-01-13T14:28:49;100644.84;;;10.33;66.45
9110;BME280;4590;51.462;6.692;2023-01-13T14:31:14;100648.41;;;10.34;67.05
9110;BME280;4590;51.462;6.692;2023-01-13T14:33:43;100652.97;;;10.25;67.13
9110;BME280;4590;51.462;6.692;2023-01-13T14:38:47;100662.88;;;10.26;67.04
9110;BME280;4590;51.462;6.692;2023-01-13T14:41:26;100662.16;;;10.20;67.25
9110;BME280;4590;51.462;6.692;2023-01-13T14:43:56;100666.03;;;10.19;67.51
9110;BME280;4590;51.462;6.692;2023-01-13T14:46:22;100668.19;;;10.22;67.58
9110;BME280;4590;51.462;6.692;2023-01-13T14:48:52;100669.59;;;10.19;67.85
9110;BME280;4590;51.462;6.692;2023-01-13T14:51:25;100665.88;;;10.10;67.95
9110;BME280;4590;51.462;6.692;2023-01-13T14:53:51;100681.19;;;10.16;68.06
9110;BME280;4590;51.462;6.692;2023-01-13T14:56:48;100679.94;;;10.09;68.31
9110;BME280;4590;51.462;6.692;2023-01-13T15:01:59;100688.69;;;10.11;68.46
9110;BME280;4590;51.462;6.692;2023-01-13T15:04:30;100692.69;;;10.05;68.22
9110;BME280;4590;51.462;6.692;2023-01-13T15:06:56;100697.06;;;10.06;68.17
9110;BME280;4590;51.462;6.692;2023-01-13T15:09:24;100711.94;;;10.05;68.35
9110;BME280;4590;51.462;6.692;2023-01-13T15:11:51;100712.75;;;10.05;68.65
9110;BME280;4590;51.462;6.692;2023-01-13T15:14:22;100712.75;;;10.05;68.26
9110;BME280;4590;51.462;6.692;2023-01-13T15:16:49;100719.34;;;10.04;68.38
9110;BME280;4590;51.462;6.692;2023-01-13T15:19:14;100724.63;;;10.01;68.19
9110;BME280;4590;51.462;6.692;2023-01-13T15:21:40;100745.22;;;10.03;67.96